createdAt,value
2022-09-18T00:01:18.182Z,52.44
2022-09-18T00:03:45.805Z,52.72
2022-09-18T00:06:16.779Z,52.52
2022-09-18T00:08:43.808Z,53.00
2022-09-18T00:11:12.804Z,53.51
2022-09-18T00:13:41.295Z,54.19
2022-09-18T00:16:10.264Z,53.78
2022-09-18T00:18:37.069Z,53.61
2022-09-18T00:21:09.333Z,54.25
2022-09-18T00:23:36.104Z,54.20
2022-09-18T00:26:03.907Z,55.04
2022-09-18T00:28:30.523Z,54.62
2022-09-18T00:31:23.855Z,55.20
2022-09-18T00:33:50.380Z,55.74
2022-09-18T00:36:17.881Z,55.10
2022-09-18T00:38:45.655Z,55.30
2022-09-18T00:41:16.731Z,54.66
2022-09-18T00:43:43.469Z,54.55
2022-09-18T00:46:26.376Z,54.25
2022-09-18T00:49:01.757Z,53.78
2022-09-18T00:51:30.999Z,52.63
2022-09-18T00:54:19.382Z,52.16
2022-09-18T00:56:48.606Z,52.57
2022-09-18T00:59:24.015Z,52.53
2022-09-18T01:01:50.656Z,52.87
2022-09-18T01:04:17.391Z,52.86
2022-09-18T01:06:56.893Z,52.36
2022-09-18T01:09:50.867Z,52.10
2022-09-18T01:12:40.880Z,52.42
2022-09-18T01:15:47.193Z,51.43
2022-09-18T01:18:31.447Z,52.21
2022-09-18T01:21:07.613Z,52.68
2022-09-18T01:23:49.184Z,52.55
2022-09-18T01:26:15.682Z,53.16
2022-09-18T01:28:59.143Z,53.58
2022-09-18T01:31:31.097Z,52.85
2022-09-18T01:34:13.836Z,52.84
2022-09-18T01:36:47.773Z,53.24
2022-09-18T01:39:26.941Z,52.79
2022-09-18T01:41:56.130Z,52.96
2022-09-18T01:44:30.215Z,53.23
2022-09-18T01:47:00.365Z,53.64
2022-09-18T01:49:39.144Z,53.04
2022-09-18T01:52:16.417Z,52.53
2022-09-18T01:54:48.554Z,52.96
2022-09-18T01:57:20.499Z,51.97
2022-09-18T02:00:04.306Z,51.90
2022-09-18T02:02:43.754Z,51.68
2022-09-18T02:05:18.256Z,51.70
2022-09-18T02:08:06.701Z,52.05
2022-09-18T02:10:39.702Z,51.61
2022-09-18T02:13:11.395Z,51.84
2022-09-18T02:15:41.505Z,52.26
2022-09-18T02:18:21.088Z,51.72
2022-09-18T02:20:48.339Z,52.66
2022-09-18T02:23:16.615Z,52.02
2022-09-18T02:25:53.706Z,52.76
2022-09-18T02:28:25.197Z,52.41
2022-09-18T02:30:51.766Z,52.59
2022-09-18T02:33:33.180Z,51.46
2022-09-18T02:36:30.893Z,51.87
2022-09-18T02:39:27.211Z,50.92
2022-09-18T02:42:22.030Z,52.83
2022-09-18T02:44:54.659Z,52.35
2022-09-18T02:47:49.019Z,51.72
2022-09-18T02:50:26.877Z,51.55
2022-09-18T02:53:27.989Z,50.55
2022-09-18T02:56:01.238Z,50.52
2022-09-18T02:58:46.674Z,50.20
2022-09-18T03:01:17.482Z,50.64
2022-09-18T03:03:44.047Z,50.20
2022-09-18T03:06:10.536Z,49.61
2022-09-18T03:08:37.201Z,49.26
2022-09-18T03:11:04.411Z,48.88
2022-09-18T03:13:30.958Z,48.66
2022-09-18T03:15:58.075Z,48.10
2022-09-18T03:18:24.634Z,48.45
2022-09-18T03:20:51.143Z,47.75
2022-09-18T03:23:17.695Z,48.88
2022-09-18T03:25:44.156Z,49.33
2022-09-18T03:28:10.651Z,49.51
2022-09-18T03:30:37.221Z,49.63
2022-09-18T03:33:03.784Z,49.69
2022-09-18T03:35:30.273Z,50.11
2022-09-18T03:37:56.740Z,50.98
2022-09-18T03:40:23.290Z,49.79
2022-09-18T03:42:49.809Z,50.42
2022-09-18T03:45:16.309Z,50.91
2022-09-18T03:47:42.773Z,51.44
2022-09-18T03:50:09.653Z,51.15
2022-09-18T03:52:36.186Z,51.35
2022-09-18T03:55:02.802Z,51.92
2022-09-18T03:57:29.268Z,51.98
2022-09-18T03:59:55.774Z,52.39
2022-09-18T04:02:22.264Z,52.77
2022-09-18T04:04:48.833Z,52.26
2022-09-18T04:07:15.403Z,52.63
2022-09-18T04:09:41.918Z,52.94
2022-09-18T04:12:08.403Z,53.20
2022-09-18T04:14:35.035Z,53.45
2022-09-18T04:17:01.520Z,53.51
2022-09-18T04:19:27.988Z,53.96
2022-09-18T04:21:54.484Z,54.11
2022-09-18T04:24:20.974Z,53.91
2022-09-18T04:26:47.540Z,54.35
2022-09-18T04:29:14.078Z,54.50
2022-09-18T04:31:40.616Z,53.66
2022-09-18T04:34:07.154Z,53.88
2022-09-18T04:36:33.646Z,54.40
2022-09-18T04:39:00.271Z,53.93
2022-09-18T04:41:26.790Z,54.31
2022-09-18T04:43:53.317Z,53.92
2022-09-18T04:46:19.910Z,54.00
2022-09-18T04:48:49.309Z,53.60
2022-09-18T04:51:16.491Z,54.22
2022-09-18T04:53:43.009Z,54.45
2022-09-18T04:56:09.561Z,54.11
2022-09-18T04:58:36.026Z,53.92
2022-09-18T05:01:02.763Z,53.92
2022-09-18T05:03:30.281Z,54.34
2022-09-18T05:05:56.865Z,54.82
2022-09-18T05:08:23.973Z,54.75
2022-09-18T05:10:50.588Z,54.81
2022-09-18T05:13:17.097Z,54.95
2022-09-18T05:15:43.626Z,54.64
2022-09-18T05:18:11.992Z,54.74
2022-09-18T05:20:38.867Z,54.46
2022-09-18T05:23:05.794Z,54.11
2022-09-18T05:25:32.549Z,54.01
2022-09-18T05:28:01.774Z,54.38
2022-09-18T05:30:29.727Z,53.78
2022-09-18T05:33:02.521Z,53.98
2022-09-18T05:35:32.020Z,53.62
2022-09-18T05:37:58.649Z,54.43
2022-09-18T05:40:28.180Z,54.59
2022-09-18T05:42:54.680Z,54.76
2022-09-18T05:45:22.054Z,54.54
2022-09-18T05:47:57.399Z,54.82
2022-09-18T05:50:25.424Z,54.77
2022-09-18T05:53:03.773Z,55.40
2022-09-18T05:55:32.252Z,55.08
2022-09-18T05:58:00.837Z,55.23
2022-09-18T06:00:30.055Z,55.08
2022-09-18T06:02:59.223Z,54.93
2022-09-18T06:05:28.120Z,55.34
2022-09-18T06:07:59.075Z,54.74
2022-09-18T06:10:26.906Z,54.46
2022-09-18T06:13:11.192Z,54.10
2022-09-18T06:15:37.800Z,54.04
2022-09-18T06:18:05.834Z,54.45
2022-09-18T06:20:32.348Z,54.71
2022-09-18T06:23:00.506Z,53.80
2022-09-18T06:25:28.387Z,54.31
2022-09-18T06:28:00.012Z,53.57
2022-09-18T06:30:32.218Z,53.58
2022-09-18T06:33:08.664Z,53.77
2022-09-18T06:35:36.651Z,53.43
2022-09-18T06:38:05.073Z,52.85
2022-09-18T06:40:33.044Z,52.50
2022-09-18T06:43:01.559Z,51.53
2022-09-18T06:45:29.630Z,51.59
2022-09-18T06:48:01.055Z,50.55
2022-09-18T06:50:27.660Z,49.21
2022-09-18T06:52:54.126Z,49.40
2022-09-18T06:55:20.575Z,49.16
2022-09-18T06:57:57.058Z,47.79
2022-09-18T07:00:24.981Z,47.72
2022-09-18T07:03:02.198Z,47.40
2022-09-18T07:05:32.629Z,47.40
2022-09-18T07:07:59.756Z,47.03
2022-09-18T07:10:26.454Z,47.47
2022-09-18T07:12:56.958Z,47.46
2022-09-18T07:15:23.416Z,46.31
2022-09-18T07:17:49.848Z,45.25
2022-09-18T07:20:16.450Z,45.31
2022-09-18T07:22:47.277Z,45.92
2022-09-18T07:25:14.099Z,46.16
2022-09-18T07:27:40.562Z,45.81
2022-09-18T07:30:07.425Z,45.39
2022-09-18T07:32:35.463Z,44.58
2022-09-18T07:35:01.987Z,44.62
2022-09-18T07:37:28.454Z,44.51
2022-09-18T07:39:54.942Z,44.64
2022-09-18T07:42:21.499Z,44.52
2022-09-18T07:44:47.944Z,44.40
2022-09-18T07:47:14.398Z,44.51
2022-09-18T07:49:40.958Z,44.79
2022-09-18T07:52:07.456Z,45.05
2022-09-18T07:54:34.866Z,43.85
2022-09-18T07:57:01.319Z,44.64
2022-09-18T07:59:27.770Z,44.93
2022-09-18T08:01:54.285Z,44.18
2022-09-18T08:04:21.696Z,43.92
2022-09-18T08:06:52.147Z,44.13
2022-09-18T08:09:18.865Z,43.82
2022-09-18T08:11:46.055Z,44.37
2022-09-18T08:14:12.667Z,44.48
2022-09-18T08:16:39.209Z,44.94
2022-09-18T08:19:05.754Z,44.29
2022-09-18T08:21:32.260Z,44.32
2022-09-18T08:23:58.741Z,43.28
2022-09-18T08:26:25.189Z,43.11
2022-09-18T08:28:51.732Z,43.00
2022-09-18T08:31:18.241Z,43.34
2022-09-18T08:33:45.554Z,42.09
2022-09-18T08:36:12.091Z,42.71
2022-09-18T08:38:38.539Z,44.67
2022-09-18T08:41:21.279Z,44.16
2022-09-18T08:44:05.820Z,44.42
2022-09-18T08:46:41.551Z,44.54
2022-09-18T08:49:23.310Z,43.69
2022-09-18T08:52:10.891Z,44.40
2022-09-18T08:54:44.955Z,44.18
2022-09-18T08:57:17.904Z,44.33
2022-09-18T08:59:55.254Z,44.21
2022-09-18T09:02:47.364Z,44.31
2022-09-18T09:05:21.329Z,44.22
2022-09-18T09:08:06.758Z,44.16
2022-09-18T09:10:51.832Z,45.17
2022-09-18T09:13:49.072Z,44.67
2022-09-18T09:16:28.388Z,44.02
2022-09-18T09:19:32.115Z,44.19
2022-09-18T09:22:40.236Z,43.75
2022-09-18T09:25:34.622Z,44.95
2022-09-18T09:28:18.149Z,45.00
2022-09-18T09:30:50.992Z,44.62
2022-09-18T09:33:37.758Z,43.41
2022-09-18T09:36:13.474Z,44.05
2022-09-18T09:39:05.924Z,42.92
2022-09-18T09:41:51.794Z,43.90
2022-09-18T09:44:25.097Z,44.40
2022-09-18T09:47:19.326Z,44.84
2022-09-18T09:50:10.575Z,44.29
2022-09-18T09:52:41.771Z,43.75
2022-09-18T09:55:19.533Z,43.97
2022-09-18T09:58:01.278Z,44.25
2022-09-18T10:00:38.109Z,43.88
2022-09-18T10:03:24.781Z,44.81
2022-09-18T10:06:11.406Z,44.85
2022-09-18T10:08:44.135Z,44.12
2022-09-18T10:11:14.043Z,43.86
2022-09-18T10:13:52.558Z,43.04
2022-09-18T10:16:27.497Z,43.56
2022-09-18T10:18:54.111Z,43.78
2022-09-18T10:21:42.428Z,43.89
2022-09-18T10:24:19.225Z,44.47
2022-09-18T10:26:59.218Z,43.07
2022-09-18T10:29:25.795Z,43.42
2022-09-18T10:31:58.901Z,42.98
2022-09-18T10:34:38.862Z,42.96
2022-09-18T10:37:14.624Z,43.99
2022-09-18T10:42:54.343Z,42.57
2022-09-18T10:45:25.297Z,41.83
2022-09-18T10:48:06.301Z,41.92
2022-09-18T10:50:34.515Z,42.41
2022-09-18T10:53:33.941Z,42.94
2022-09-18T10:56:15.290Z,43.26
2022-09-18T10:58:41.787Z,43.66
2022-09-18T11:01:10.855Z,44.52
2022-09-18T11:03:58.033Z,45.91
2022-09-18T11:06:28.319Z,46.06
2022-09-18T11:09:00.004Z,47.07
2022-09-18T11:11:35.991Z,46.08
2022-09-18T11:14:06.825Z,46.47
2022-09-18T11:16:42.083Z,46.41
2022-09-18T11:19:12.067Z,45.76
2022-09-18T11:21:48.853Z,45.86
2022-09-18T11:24:31.105Z,45.70
2022-09-18T11:27:00.409Z,44.59
2022-09-18T11:29:39.076Z,44.19
2022-09-18T11:32:20.734Z,44.27
2022-09-18T11:35:01.496Z,44.63
2022-09-18T11:37:36.820Z,43.02
2022-09-18T11:40:16.361Z,43.00
2022-09-18T11:42:46.817Z,43.16
2022-09-18T11:45:34.289Z,43.37
2022-09-18T11:48:27.497Z,42.46
2022-09-18T11:51:04.508Z,43.01
2022-09-18T11:53:44.382Z,43.43
2022-09-18T11:56:46.529Z,44.45
2022-09-18T11:59:29.697Z,42.60
2022-09-18T12:02:05.591Z,42.90
2022-09-18T12:04:52.851Z,43.45
2022-09-18T12:07:41.877Z,42.77
2022-09-18T12:10:24.192Z,43.77
2022-09-18T12:13:18.053Z,43.15
2022-09-18T12:15:56.788Z,42.33
2022-09-18T12:18:36.751Z,42.55
2022-09-18T12:21:13.937Z,42.30
2022-09-18T12:23:41.039Z,42.89
2022-09-18T12:26:58.557Z,41.80
2022-09-18T12:30:01.692Z,41.54
2022-09-18T12:32:49.509Z,41.10
2022-09-18T12:35:25.342Z,40.79
2022-09-18T12:38:06.885Z,40.50
2022-09-18T12:40:52.399Z,40.27
2022-09-18T12:43:26.396Z,39.88
2022-09-18T12:45:58.609Z,40.26
2022-09-18T12:48:36.801Z,39.93
2022-09-18T12:51:26.179Z,39.42
2022-09-18T12:54:06.847Z,39.75
2022-09-18T12:57:01.357Z,38.44
2022-09-18T12:59:52.149Z,38.22
2022-09-18T13:02:51.387Z,38.40
2022-09-18T13:05:29.436Z,37.03
2022-09-18T13:08:21.416Z,37.95
2022-09-18T13:10:53.290Z,36.67
2022-09-18T13:13:39.794Z,35.77
2022-09-18T13:16:17.603Z,35.12
2022-09-18T13:19:13.115Z,34.57
2022-09-18T13:21:43.715Z,34.18
2022-09-18T13:24:22.305Z,33.96
2022-09-18T13:26:51.991Z,33.40
2022-09-18T13:29:46.124Z,31.92
2022-09-18T13:32:16.857Z,32.26
2022-09-18T13:35:14.042Z,31.51
2022-09-18T13:37:42.665Z,30.71
2022-09-18T13:40:34.108Z,30.51
2022-09-18T13:43:17.706Z,30.43
2022-09-18T13:45:44.182Z,29.83
2022-09-18T13:48:22.885Z,29.51
2022-09-18T13:50:57.483Z,29.24
2022-09-18T13:53:53.975Z,27.70
2022-09-18T13:56:20.484Z,27.47
2022-09-18T13:58:48.644Z,27.65
2022-09-18T14:01:41.073Z,26.58
2022-09-18T14:04:42.113Z,26.03
2022-09-18T14:07:17.344Z,25.25
2022-09-18T14:09:51.226Z,25.54
2022-09-18T14:12:19.579Z,25.07
2022-09-18T14:15:00.251Z,25.72
2022-09-18T14:17:28.212Z,25.21
2022-09-18T14:20:00.372Z,24.65
2022-09-18T14:22:30.808Z,24.54
2022-09-18T14:24:59.862Z,23.92
2022-09-18T14:27:55.777Z,23.27
2022-09-18T14:30:30.602Z,22.81
2022-09-18T14:33:14.799Z,22.82
2022-09-18T14:35:57.380Z,22.15
2022-09-18T14:38:38.275Z,22.09
2022-09-18T14:41:24.631Z,22.14
2022-09-18T14:43:55.476Z,21.31
2022-09-18T14:46:24.718Z,21.09
2022-09-18T14:48:52.095Z,20.56
2022-09-18T14:51:24.905Z,20.59
2022-09-18T14:53:54.806Z,20.50
2022-09-18T14:56:29.452Z,20.55
2022-09-18T14:58:59.968Z,20.24
2022-09-18T15:01:32.142Z,20.16
2022-09-18T15:04:03.812Z,21.07
2022-09-18T15:06:38.279Z,21.13
2022-09-18T15:09:10.431Z,20.67
2022-09-18T15:12:01.449Z,21.00
2022-09-18T15:14:41.531Z,21.07
2022-09-18T15:17:23.026Z,21.13
2022-09-18T15:20:14.677Z,20.72
2022-09-18T15:22:41.487Z,21.28
2022-09-18T15:25:23.375Z,20.15
2022-09-18T15:27:53.374Z,20.55
2022-09-18T15:30:22.841Z,21.19
2022-09-18T15:32:56.093Z,20.55
2022-09-18T15:35:36.517Z,20.20
2022-09-18T15:38:17.082Z,20.10
2022-09-18T15:40:45.762Z,20.41
2022-09-18T15:43:30.217Z,21.23
2022-09-18T15:46:26.153Z,21.03
2022-09-18T15:48:53.734Z,21.41
2022-09-18T15:51:35.243Z,21.23
2022-09-18T15:54:10.936Z,21.63
2022-09-18T15:56:48.042Z,22.64
2022-09-18T15:59:33.690Z,23.36
2022-09-18T16:02:04.280Z,23.13
2022-09-18T16:04:33.334Z,23.18
2022-09-18T16:07:05.007Z,24.26
2022-09-18T16:09:43.326Z,24.63
2022-09-18T16:12:29.637Z,24.17
2022-09-18T16:15:07.088Z,24.58
2022-09-18T16:17:37.093Z,24.08
2022-09-18T16:20:22.529Z,24.12
2022-09-18T16:22:56.718Z,24.32
2022-09-18T16:25:27.079Z,24.64
2022-09-18T16:27:56.179Z,25.24
2022-09-18T16:30:27.365Z,25.41
2022-09-18T16:33:18.297Z,25.20
2022-09-18T16:35:46.947Z,25.31
2022-09-18T16:38:13.624Z,25.12
2022-09-18T16:40:41.942Z,25.22
2022-09-18T16:43:08.445Z,24.74
2022-09-18T16:45:34.956Z,25.29
2022-09-18T16:48:01.740Z,25.66
2022-09-18T16:50:28.263Z,26.31
2022-09-18T16:52:57.510Z,26.53
2022-09-18T16:55:26.400Z,26.52
2022-09-18T16:57:53.321Z,26.58
2022-09-18T17:00:19.946Z,26.18
2022-09-18T17:02:46.559Z,26.27
2022-09-18T17:05:13.099Z,26.57
2022-09-18T17:07:39.571Z,26.76
2022-09-18T17:10:06.450Z,27.83
2022-09-18T17:12:33.070Z,27.98
2022-09-18T17:14:59.519Z,28.19
2022-09-18T17:17:26.001Z,28.75
2022-09-18T17:19:52.535Z,29.14
2022-09-18T17:22:22.450Z,29.37
2022-09-18T17:24:49.455Z,29.90
2022-09-18T17:27:15.973Z,30.68
2022-09-18T17:29:42.451Z,31.63
2022-09-18T17:32:09.139Z,32.73
2022-09-18T17:34:35.847Z,33.35
2022-09-18T17:37:02.417Z,34.37
2022-09-18T17:39:29.057Z,34.68
2022-09-18T17:41:55.553Z,34.71
2022-09-18T17:44:22.967Z,35.60
2022-09-18T17:46:50.095Z,36.18
2022-09-18T17:49:17.162Z,36.72
2022-09-18T17:51:43.633Z,36.87
2022-09-18T17:54:11.174Z,37.14
2022-09-18T17:56:38.011Z,36.89
2022-09-18T17:59:08.630Z,36.50
2022-09-18T18:01:37.855Z,37.42
2022-09-18T18:04:05.352Z,37.64
2022-09-18T18:06:32.762Z,38.18
2022-09-18T18:08:59.223Z,38.64
2022-09-18T18:11:25.991Z,39.33
2022-09-18T18:13:54.011Z,39.77
2022-09-18T18:16:23.923Z,39.88
2022-09-18T18:18:53.750Z,39.98
2022-09-18T18:21:21.292Z,39.57
2022-09-18T18:23:47.745Z,39.93
2022-09-18T18:26:14.350Z,40.26
2022-09-18T18:28:41.514Z,40.35
2022-09-18T18:31:10.877Z,40.44
2022-09-18T18:33:39.707Z,40.97
2022-09-18T18:36:14.059Z,41.28
2022-09-18T18:38:42.595Z,41.27
2022-09-18T18:41:10.667Z,41.10
2022-09-18T18:43:39.128Z,42.23
2022-09-18T18:46:06.096Z,41.55
2022-09-18T18:48:32.904Z,40.98
2022-09-18T18:51:04.728Z,41.32
2022-09-18T18:53:31.495Z,43.02
2022-09-18T18:56:02.494Z,41.50
2022-09-18T18:58:29.134Z,41.95
2022-09-18T19:00:56.031Z,44.14
2022-09-18T19:03:23.019Z,44.36
2022-09-18T19:08:38.064Z,43.31
2022-09-18T19:11:05.874Z,41.84
2022-09-18T19:16:18.296Z,41.38
2022-09-18T19:18:50.424Z,41.70
2022-09-18T19:23:57.531Z,41.58
2022-09-18T19:26:26.342Z,42.04
2022-09-18T19:28:56.274Z,42.63
2022-09-18T19:42:42.452Z,42.28
2022-09-18T19:45:11.210Z,42.22
2022-09-18T19:47:44.473Z,40.87
2022-09-18T19:50:21.393Z,40.46
2022-09-18T19:52:51.509Z,40.02
2022-09-18T19:55:23.143Z,39.30
2022-09-18T19:57:53.046Z,39.31
2022-09-18T20:00:20.580Z,39.39
2022-09-18T20:02:47.082Z,39.13
2022-09-18T20:05:13.614Z,40.51
2022-09-18T20:07:40.789Z,40.39
2022-09-18T20:10:10.907Z,39.58
2022-09-18T20:12:40.093Z,40.05
2022-09-18T20:15:09.195Z,39.79
2022-09-18T20:17:36.652Z,40.16
2022-09-18T20:20:08.608Z,39.80
2022-09-18T20:22:35.578Z,39.74
2022-09-18T20:25:02.224Z,40.40
2022-09-18T20:27:28.968Z,40.78
2022-09-18T20:29:55.514Z,40.81
2022-09-18T20:32:22.059Z,40.56
2022-09-18T20:34:48.649Z,41.16
2022-09-18T20:37:15.391Z,41.31
2022-09-18T20:39:42.364Z,41.72
2022-09-18T20:42:09.367Z,40.32
2022-09-18T20:44:36.723Z,40.35
2022-09-18T20:47:04.672Z,41.00
2022-09-18T20:49:31.446Z,39.70
2022-09-18T20:51:59.558Z,40.17
2022-09-18T20:54:27.761Z,40.48
2022-09-18T20:56:54.658Z,39.52
2022-09-18T20:59:21.576Z,39.45
2022-09-18T21:01:48.672Z,39.33
2022-09-18T21:04:18.403Z,39.35
2022-09-18T21:06:52.405Z,38.64
2022-09-18T21:17:59.663Z,37.27
2022-09-18T21:35:33.148Z,38.44
2022-09-18T21:38:00.262Z,38.73
2022-09-18T21:40:27.809Z,38.79
2022-09-18T21:42:55.097Z,38.78
2022-09-18T21:50:47.959Z,39.11
2022-09-18T21:53:15.094Z,39.41
2022-09-18T21:55:42.156Z,40.28
2022-09-18T21:58:09.037Z,40.29
2022-09-18T22:00:35.701Z,40.18
2022-09-18T22:03:02.274Z,40.60
2022-09-18T22:05:28.785Z,39.73
2022-09-18T22:07:56.995Z,40.70
2022-09-18T22:10:27.153Z,41.33
2022-09-18T22:12:57.851Z,41.44
2022-09-18T22:18:18.743Z,41.03
2022-09-18T22:20:46.090Z,41.85
2022-09-18T22:23:15.852Z,41.29
2022-09-18T22:25:43.872Z,41.88
2022-09-18T22:28:11.355Z,41.62
2022-09-18T22:39:06.889Z,42.04
2022-09-18T22:41:36.459Z,42.09
2022-09-18T22:44:04.044Z,43.03
2022-09-18T22:46:31.360Z,42.48
2022-09-18T22:49:01.114Z,43.07
2022-09-18T22:51:28.575Z,43.54
2022-09-18T22:54:13.555Z,42.79
2022-09-18T23:02:34.142Z,43.18
2022-09-18T23:05:01.673Z,43.98
2022-09-18T23:07:28.517Z,43.29
2022-09-18T23:09:55.206Z,44.01
2022-09-18T23:12:22.086Z,43.65
2022-09-18T23:17:24.031Z,43.86
2022-09-18T23:19:50.842Z,43.47
2022-09-18T23:31:16.797Z,44.00
2022-09-18T23:36:25.399Z,43.95
2022-09-18T23:38:57.747Z,44.54
2022-09-18T23:41:26.309Z,44.67
2022-09-18T23:43:54.830Z,44.55
2022-09-18T23:46:23.382Z,44.84
2022-09-18T23:48:50.388Z,45.29
2022-09-18T23:51:16.990Z,45.69
